createdAt,value
2023-04-12T00:00:02.671Z,4.40
2023-04-12T00:01:02.798Z,4.40
2023-04-12T00:02:02.791Z,4.40
2023-04-12T00:03:02.821Z,4.40
2023-04-12T00:04:03.302Z,4.40
2023-04-12T00:05:02.903Z,4.40
2023-04-12T00:06:02.912Z,4.40
2023-04-12T00:07:02.894Z,4.40
2023-04-12T00:08:02.946Z,4.40
2023-04-12T00:09:02.876Z,4.40
2023-04-12T00:10:03.238Z,4.40
2023-04-12T00:11:02.926Z,4.40
2023-04-12T00:12:02.902Z,4.40
2023-04-12T00:13:02.837Z,4.40
2023-04-12T00:14:02.928Z,4.40
2023-04-12T00:15:02.961Z,4.40
2023-04-12T00:16:02.980Z,4.40
2023-04-12T00:17:03.008Z,4.40
2023-04-12T00:18:03.023Z,4.40
2023-04-12T00:19:03.026Z,4.40
2023-04-12T00:20:03.042Z,4.40
2023-04-12T00:21:03.170Z,4.40
2023-04-12T00:22:03.145Z,4.40
2023-04-12T00:23:03.244Z,4.40
2023-04-12T00:24:03.206Z,4.40
2023-04-12T00:25:03.296Z,4.40
2023-04-12T00:26:03.238Z,4.30
2023-04-12T00:27:03.240Z,4.30
2023-04-12T00:28:03.176Z,4.30
2023-04-12T00:29:03.256Z,4.30
2023-04-12T00:30:03.329Z,4.30
2023-04-12T00:31:03.387Z,4.30
2023-04-12T00:32:03.311Z,4.40
2023-04-12T00:33:03.277Z,4.30
2023-04-12T00:34:03.252Z,4.30
2023-04-12T00:35:03.288Z,4.30
2023-04-12T00:36:03.375Z,4.30
2023-04-12T00:37:03.354Z,4.30
2023-04-12T00:38:03.419Z,4.30
2023-04-12T00:39:03.419Z,4.20
2023-04-12T00:40:03.482Z,4.20
2023-04-12T00:41:03.592Z,4.20
2023-04-12T00:42:03.561Z,4.20
2023-04-12T00:43:02.686Z,4.20
2023-04-12T00:44:02.666Z,4.20
2023-04-12T00:45:02.714Z,4.20
2023-04-12T00:46:02.784Z,4.20
2023-04-12T00:47:02.794Z,4.20
2023-04-12T00:48:02.807Z,4.20
2023-04-12T00:49:02.925Z,4.20
2023-04-12T00:50:02.843Z,4.20
2023-04-12T00:51:03.249Z,4.20
2023-04-12T00:52:03.334Z,4.20
2023-04-12T00:53:03.237Z,4.20
2023-04-12T00:54:03.369Z,4.20
2023-04-12T00:55:03.372Z,4.20
2023-04-12T00:56:03.409Z,4.20
2023-04-12T00:57:03.439Z,4.20
2023-04-12T00:58:03.547Z,4.20
2023-04-12T00:59:03.532Z,4.20
2023-04-12T01:00:02.621Z,4.20
2023-04-12T01:01:02.760Z,4.20
2023-04-12T01:02:02.873Z,4.20
2023-04-12T01:03:03.057Z,4.20
2023-04-12T01:04:02.969Z,4.10
2023-04-12T01:05:02.985Z,4.10
2023-04-12T01:06:03.035Z,4.10
2023-04-12T01:07:03.102Z,4.10
2023-04-12T01:08:03.139Z,4.10
2023-04-12T01:09:03.106Z,4.10
2023-04-12T01:10:03.202Z,4.10
2023-04-12T01:11:03.320Z,4.10
2023-04-12T01:12:03.301Z,4.10
2023-04-12T01:13:03.239Z,4.10
2023-04-12T01:14:03.421Z,4.10
2023-04-12T01:15:03.474Z,4.10
2023-04-12T01:16:03.384Z,4.10
2023-04-12T01:17:03.501Z,4.10
2023-04-12T01:18:03.518Z,4.10
2023-04-12T01:19:03.510Z,4.00
2023-04-12T01:20:04.722Z,4.10
2023-04-12T01:21:03.520Z,4.10
2023-04-12T01:22:03.569Z,4.10
2023-04-12T01:23:02.622Z,4.10
2023-04-12T01:24:02.676Z,4.10
2023-04-12T01:25:03.579Z,4.10
2023-04-12T01:26:02.712Z,4.10
2023-04-12T01:27:02.800Z,4.10
2023-04-12T01:28:02.829Z,4.10
2023-04-12T01:29:02.807Z,4.10
2023-04-12T01:30:02.875Z,4.10
2023-04-12T01:31:02.901Z,4.10
2023-04-12T01:32:02.933Z,4.10
2023-04-12T01:33:03.070Z,4.10
2023-04-12T01:34:03.102Z,4.10
2023-04-12T01:35:03.137Z,4.10
2023-04-12T01:36:04.547Z,4.10
2023-04-12T01:37:03.261Z,4.00
2023-04-12T01:38:03.287Z,4.00
2023-04-12T01:39:03.362Z,4.00
2023-04-12T01:40:03.501Z,4.00
2023-04-12T01:41:03.500Z,4.00
2023-04-12T01:42:03.500Z,4.00
2023-04-12T01:43:03.626Z,4.00
2023-04-12T01:44:03.617Z,4.00
2023-04-12T01:45:02.683Z,4.00
2023-04-12T01:46:02.799Z,4.00
2023-04-12T01:47:02.872Z,4.00
2023-04-12T01:48:02.873Z,4.00
2023-04-12T01:49:02.820Z,4.00
2023-04-12T01:50:02.814Z,4.00
2023-04-12T01:51:02.881Z,4.00
2023-04-12T01:52:02.805Z,4.00
2023-04-12T01:53:02.874Z,4.00
2023-04-12T01:54:02.834Z,4.00
2023-04-12T01:55:02.888Z,4.00
2023-04-12T01:56:02.939Z,4.00
2023-04-12T01:57:02.845Z,4.00
2023-04-12T01:58:03.010Z,4.00
2023-04-12T01:59:02.959Z,4.00
2023-04-12T02:00:03.021Z,4.00
2023-04-12T02:01:03.161Z,4.00
2023-04-12T02:02:03.238Z,4.00
2023-04-12T02:03:03.354Z,4.00
2023-04-12T02:04:03.398Z,4.00
2023-04-12T02:05:03.363Z,4.00
2023-04-12T02:06:03.426Z,4.00
2023-04-12T02:07:03.564Z,4.00
2023-04-12T02:08:03.555Z,4.00
2023-04-12T02:09:03.500Z,4.00
2023-04-12T02:10:03.646Z,4.00
2023-04-12T02:11:02.724Z,4.00
2023-04-12T02:12:02.618Z,4.00
2023-04-12T02:13:02.829Z,4.00
2023-04-12T02:14:02.818Z,4.00
2023-04-12T02:15:03.002Z,4.00
2023-04-12T02:16:03.052Z,4.00
2023-04-12T02:17:03.243Z,4.00
2023-04-12T02:18:03.267Z,4.00
2023-04-12T02:19:03.132Z,4.00
2023-04-12T02:20:03.185Z,4.00
2023-04-12T02:21:03.319Z,4.00
2023-04-12T02:22:03.406Z,4.00
2023-04-12T02:23:03.363Z,4.00
2023-04-12T02:24:03.551Z,4.00
2023-04-12T02:25:03.546Z,4.00
2023-04-12T02:26:03.560Z,4.00
2023-04-12T02:27:03.427Z,4.00
2023-04-12T02:28:03.513Z,4.00
2023-04-12T02:29:03.645Z,4.00
2023-04-12T02:30:02.702Z,4.00
2023-04-12T02:31:02.712Z,4.00
2023-04-12T02:32:02.659Z,4.00
2023-04-12T02:33:02.769Z,4.00
2023-04-12T02:34:02.752Z,4.00
2023-04-12T02:35:02.718Z,4.00
2023-04-12T02:36:02.811Z,4.00
2023-04-12T02:37:02.872Z,4.00
2023-04-12T02:38:02.874Z,4.00
2023-04-12T02:39:02.881Z,4.00
2023-04-12T02:40:02.898Z,4.00
2023-04-12T02:41:03.041Z,4.00
2023-04-12T02:42:03.128Z,4.00
2023-04-12T02:43:03.189Z,4.00
2023-04-12T02:44:03.184Z,4.00
2023-04-12T02:45:03.137Z,4.00
2023-04-12T02:46:03.135Z,4.10
2023-04-12T02:47:03.120Z,4.10
2023-04-12T02:48:03.282Z,4.00
2023-04-12T02:49:03.249Z,4.10
2023-04-12T02:50:03.229Z,4.10
2023-04-12T02:51:03.146Z,4.10
2023-04-12T02:52:03.215Z,4.10
2023-04-12T02:53:03.195Z,4.10
2023-04-12T02:54:03.197Z,4.10
2023-04-12T02:55:03.276Z,4.10
2023-04-12T02:56:04.453Z,4.10
2023-04-12T02:57:03.314Z,4.10
2023-04-12T02:58:03.321Z,4.00
2023-04-12T02:59:03.191Z,4.00
2023-04-12T03:00:03.336Z,4.00
2023-04-12T03:01:03.321Z,4.10
2023-04-12T03:02:03.513Z,4.00
2023-04-12T03:03:03.600Z,4.10
2023-04-12T03:04:03.589Z,4.10
2023-04-12T03:05:03.463Z,4.10
2023-04-12T03:06:03.569Z,4.10
2023-04-12T03:07:03.555Z,4.10
2023-04-12T03:08:03.484Z,4.10
2023-04-12T03:09:03.575Z,4.10
2023-04-12T03:10:03.555Z,4.10
2023-04-12T03:11:03.566Z,4.10
2023-04-12T03:12:02.623Z,4.10
2023-04-12T03:13:02.731Z,4.10
2023-04-12T03:14:02.659Z,4.10
2023-04-12T03:15:02.773Z,4.10
2023-04-12T03:16:02.867Z,4.10
2023-04-12T03:17:02.814Z,4.10
2023-04-12T03:18:02.954Z,4.20
2023-04-12T03:19:02.853Z,4.10
2023-04-12T03:20:02.911Z,4.20
2023-04-12T03:21:03.087Z,4.20
2023-04-12T03:22:03.140Z,4.20
2023-04-12T03:23:03.210Z,4.20
2023-04-12T03:24:03.256Z,4.20
2023-04-12T03:25:03.353Z,4.20
2023-04-12T03:26:03.291Z,4.20
2023-04-12T03:27:03.304Z,4.20
2023-04-12T03:28:03.252Z,4.20
2023-04-12T03:29:03.295Z,4.20
2023-04-12T03:30:03.407Z,4.20
2023-04-12T03:31:03.421Z,4.20
2023-04-12T03:32:03.460Z,4.20
2023-04-12T03:33:03.494Z,4.20
2023-04-12T03:34:03.447Z,4.20
2023-04-12T03:35:03.428Z,4.30
2023-04-12T03:36:03.508Z,4.30
2023-04-12T03:37:02.615Z,4.30
2023-04-12T03:38:02.720Z,4.30
2023-04-12T03:39:02.690Z,4.30
2023-04-12T03:40:02.782Z,4.30
2023-04-12T03:41:02.892Z,4.30
2023-04-12T03:42:02.988Z,4.30
2023-04-12T03:43:02.951Z,4.30
2023-04-12T03:44:03.038Z,4.30
2023-04-12T03:45:03.405Z,4.30
2023-04-12T03:46:03.359Z,4.30
2023-04-12T03:47:03.383Z,4.30
2023-04-12T03:48:03.614Z,4.30
2023-04-12T03:49:03.493Z,4.30
2023-04-12T03:51:03.510Z,4.30
2023-04-12T03:52:03.513Z,4.20
2023-04-12T03:53:03.589Z,4.30
2023-04-12T03:54:03.583Z,4.30
2023-04-12T03:55:02.630Z,4.30
2023-04-12T03:56:02.756Z,4.30
2023-04-12T03:57:02.653Z,4.30
2023-04-12T03:58:02.821Z,4.30
2023-04-12T03:59:02.809Z,4.30
2023-04-12T04:00:03.034Z,4.30
2023-04-12T04:01:02.990Z,4.40
2023-04-12T04:02:02.992Z,4.30
2023-04-12T04:03:03.279Z,4.40
2023-04-12T04:04:03.568Z,4.40
2023-04-12T04:05:03.156Z,4.40
2023-04-12T04:06:03.187Z,4.40
2023-04-12T04:07:03.308Z,4.40
2023-04-12T04:08:03.282Z,4.40
2023-04-12T04:09:03.373Z,4.50
2023-04-12T04:10:03.453Z,4.50
2023-04-12T04:11:03.446Z,4.50
2023-04-12T04:12:03.522Z,4.50
2023-04-12T04:13:03.546Z,4.50
2023-04-12T04:14:03.548Z,4.50
2023-04-12T04:15:03.554Z,4.50
2023-04-12T04:16:02.669Z,4.60
2023-04-12T04:17:02.722Z,4.60
2023-04-12T04:18:02.780Z,4.60
2023-04-12T04:19:02.750Z,4.60
2023-04-12T04:20:02.748Z,4.60
2023-04-12T04:21:02.775Z,4.60
2023-04-12T04:22:02.895Z,4.60
2023-04-12T04:23:02.956Z,4.60
2023-04-12T04:24:02.955Z,4.70
2023-04-12T04:25:03.556Z,4.70
2023-04-12T04:26:03.390Z,4.70
2023-04-12T04:27:03.372Z,4.70
2023-04-12T04:28:03.475Z,4.70
2023-04-12T04:29:03.538Z,4.70
2023-04-12T04:30:03.496Z,4.70
2023-04-12T04:31:03.537Z,4.80
2023-04-12T04:32:02.753Z,4.70
2023-04-12T04:33:03.063Z,4.80
2023-04-12T04:34:02.898Z,4.80
2023-04-12T04:35:02.815Z,4.80
2023-04-12T04:36:02.821Z,4.80
2023-04-12T04:37:02.999Z,4.80
2023-04-12T04:38:02.904Z,4.80
2023-04-12T04:39:02.899Z,4.80
2023-04-12T04:40:03.042Z,4.80
2023-04-12T04:41:03.017Z,4.80
2023-04-12T04:42:03.054Z,4.80
2023-04-12T04:43:03.132Z,4.80
2023-04-12T04:44:03.216Z,4.90
2023-04-12T04:45:03.432Z,4.90
2023-04-12T04:46:03.551Z,4.90
2023-04-12T04:47:02.717Z,4.90
2023-04-12T04:48:02.673Z,4.90
2023-04-12T04:49:02.653Z,4.90
2023-04-12T04:50:02.762Z,4.90
2023-04-12T04:51:02.881Z,4.90
2023-04-12T04:52:02.759Z,4.90
2023-04-12T04:53:02.841Z,4.90
2023-04-12T04:54:02.957Z,5.00
2023-04-12T04:55:04.837Z,4.90
2023-04-12T04:56:03.205Z,4.90
2023-04-12T04:57:03.124Z,5.00
2023-04-12T04:58:03.166Z,5.00
2023-04-12T04:59:03.227Z,5.00
2023-04-12T05:00:02.772Z,5.00
2023-04-12T05:01:02.837Z,5.00
2023-04-12T05:02:02.865Z,5.00
2023-04-12T05:03:02.947Z,5.00
2023-04-12T05:04:02.966Z,5.00
2023-04-12T05:05:03.031Z,5.00
2023-04-12T05:06:03.019Z,5.00
2023-04-12T05:07:02.972Z,5.00
2023-04-12T05:08:03.171Z,5.00
2023-04-12T05:09:03.172Z,5.10
2023-04-12T05:10:03.313Z,5.00
2023-04-12T05:11:03.353Z,5.10
2023-04-12T05:12:03.351Z,5.10
2023-04-12T05:13:03.431Z,5.10
2023-04-12T05:14:03.287Z,5.10
2023-04-12T05:16:03.464Z,5.10
2023-04-12T05:17:03.457Z,5.10
2023-04-12T05:18:03.625Z,5.10
2023-04-12T05:19:03.572Z,5.10
2023-04-12T05:20:03.536Z,5.10
2023-04-12T05:21:03.555Z,5.20
2023-04-12T05:22:03.544Z,5.20
2023-04-12T05:23:03.527Z,5.20
2023-04-12T05:24:03.584Z,5.20
2023-04-12T05:25:03.595Z,5.20
2023-04-12T05:26:03.576Z,5.20
2023-04-12T05:27:03.537Z,5.20
2023-04-12T05:28:03.563Z,5.20
2023-04-12T05:29:03.533Z,5.20
2023-04-12T05:30:02.683Z,5.30
2023-04-12T05:31:02.734Z,5.20
2023-04-12T05:32:02.712Z,5.30
2023-04-12T05:33:02.857Z,5.30
2023-04-12T05:34:02.741Z,5.30
2023-04-12T05:35:02.729Z,5.30
2023-04-12T05:36:02.756Z,5.30
2023-04-12T05:37:02.818Z,5.30
2023-04-12T05:38:02.921Z,5.30
2023-04-12T05:39:02.900Z,5.30
2023-04-12T05:40:02.757Z,5.30
2023-04-12T05:41:02.811Z,5.30
2023-04-12T05:42:02.859Z,5.30
2023-04-12T05:43:02.872Z,5.40
2023-04-12T05:44:02.877Z,5.40
2023-04-12T05:45:02.833Z,5.40
2023-04-12T05:46:02.918Z,5.40
2023-04-12T05:47:02.861Z,5.40
2023-04-12T05:48:02.990Z,5.40
2023-04-12T05:49:02.909Z,5.50
2023-04-12T05:50:03.206Z,5.50
2023-04-12T05:51:02.782Z,5.50
2023-04-12T05:52:02.780Z,5.50
2023-04-12T05:53:02.799Z,5.50
2023-04-12T05:54:02.842Z,5.60
2023-04-12T05:55:02.759Z,5.60
2023-04-12T05:56:02.840Z,5.70
2023-04-12T05:57:02.801Z,5.70
2023-04-12T05:58:02.809Z,5.80
2023-04-12T05:59:02.842Z,5.80
2023-04-12T06:00:03.055Z,5.90
2023-04-12T06:01:03.033Z,5.90
2023-04-12T06:02:03.041Z,5.90
2023-04-12T06:03:03.204Z,6.00
2023-04-12T06:04:03.126Z,6.00
2023-04-12T06:05:03.516Z,6.10
2023-04-12T06:06:03.113Z,6.10
2023-04-12T06:07:03.114Z,6.20
2023-04-12T06:08:03.232Z,6.20
2023-04-12T06:09:03.361Z,6.30
2023-04-12T06:10:03.403Z,6.40
2023-04-12T06:11:03.408Z,6.40
2023-04-12T06:12:03.384Z,6.50
2023-04-12T06:13:03.384Z,6.50
2023-04-12T06:14:03.506Z,6.60
2023-04-12T06:15:03.403Z,6.60
2023-04-12T06:16:03.654Z,6.70
2023-04-12T06:17:03.450Z,6.70
2023-04-12T06:18:03.662Z,6.80
2023-04-12T06:19:03.676Z,6.80
2023-04-12T06:20:03.650Z,6.80
2023-04-12T06:21:03.603Z,6.80
2023-04-12T06:22:02.691Z,6.90
2023-04-12T06:23:02.730Z,6.90
2023-04-12T06:24:03.704Z,6.90
2023-04-12T06:25:03.739Z,6.90
2023-04-12T06:26:03.575Z,7.00
2023-04-12T06:27:02.757Z,7.00
2023-04-12T06:28:02.742Z,7.00
2023-04-12T06:29:02.801Z,7.00
2023-04-12T06:30:02.848Z,7.10
2023-04-12T06:31:02.923Z,7.10
2023-04-12T06:32:02.804Z,7.10
2023-04-12T06:33:02.900Z,7.20
2023-04-12T06:34:03.145Z,7.20
2023-04-12T06:35:03.042Z,7.30
2023-04-12T06:36:03.218Z,7.30
2023-04-12T06:37:03.104Z,7.30
2023-04-12T06:38:03.253Z,7.30
2023-04-12T06:39:03.345Z,7.40
2023-04-12T06:40:03.288Z,7.40
2023-04-12T06:41:04.315Z,7.40
2023-04-12T06:42:03.394Z,7.40
2023-04-12T06:43:03.493Z,7.50
2023-04-12T06:44:02.657Z,7.50
2023-04-12T06:45:02.673Z,7.50
2023-04-12T06:46:02.698Z,7.60
2023-04-12T06:47:02.798Z,7.60
2023-04-12T06:48:02.834Z,7.60
2023-04-12T06:49:03.760Z,7.70
2023-04-12T06:50:03.096Z,7.70
2023-04-12T06:51:02.951Z,7.80
2023-04-12T06:52:02.988Z,7.80
2023-04-12T06:53:03.063Z,7.80
2023-04-12T06:54:03.000Z,7.90
2023-04-12T06:55:03.063Z,7.90
2023-04-12T06:56:03.056Z,7.90
2023-04-12T06:57:03.024Z,8.00
2023-04-12T06:58:03.094Z,8.00
2023-04-12T06:59:03.023Z,8.00
2023-04-12T07:00:03.053Z,8.00
2023-04-12T07:01:03.186Z,8.10
2023-04-12T07:02:03.122Z,8.10
2023-04-12T07:03:03.096Z,8.10
2023-04-12T07:04:03.473Z,8.20
2023-04-12T07:05:03.218Z,8.20
2023-04-12T07:06:07.609Z,8.30
2023-04-12T07:07:03.199Z,8.30
2023-04-12T07:08:03.175Z,8.30
2023-04-12T07:09:03.250Z,8.30
2023-04-12T07:10:03.182Z,8.40
2023-04-12T07:11:14.562Z,8.40
2023-04-12T07:12:03.169Z,8.50
2023-04-12T07:13:03.165Z,8.60
2023-04-12T07:14:03.228Z,8.60
2023-04-12T07:15:03.217Z,8.70
2023-04-12T07:16:03.214Z,8.70
2023-04-12T07:17:03.219Z,8.80
2023-04-12T07:18:03.225Z,8.80
2023-04-12T07:19:03.062Z,8.90
2023-04-12T07:20:03.094Z,8.90
2023-04-12T07:21:03.140Z,8.90
2023-04-12T07:22:03.177Z,9.00
2023-04-12T07:23:03.300Z,9.00
2023-04-12T07:24:03.131Z,9.00
2023-04-12T07:25:03.164Z,9.10
2023-04-12T07:26:03.231Z,9.10
2023-04-12T07:27:03.211Z,9.10
2023-04-12T07:28:03.142Z,9.20
2023-04-12T07:29:03.202Z,9.20
2023-04-12T07:30:03.354Z,9.30
2023-04-12T07:31:03.344Z,9.40
2023-04-12T07:32:03.431Z,9.40
2023-04-12T07:33:12.617Z,9.40
2023-04-12T07:34:03.750Z,9.50
2023-04-12T07:35:03.603Z,9.50
2023-04-12T07:36:03.626Z,9.50
2023-04-12T07:37:02.676Z,9.50
2023-04-12T07:38:02.736Z,9.60
2023-04-12T07:39:02.898Z,9.60
2023-04-12T07:40:02.843Z,9.70
2023-04-12T07:41:02.754Z,9.70
2023-04-12T07:42:02.855Z,9.70
2023-04-12T07:43:02.874Z,9.80
2023-04-12T07:44:02.991Z,9.80
2023-04-12T07:45:02.828Z,9.80
2023-04-12T07:46:02.843Z,9.90
2023-04-12T07:47:02.886Z,10.00
2023-04-12T07:48:03.099Z,10.00
2023-04-12T07:49:02.997Z,10.00
2023-04-12T07:50:03.137Z,10.10
2023-04-12T07:51:03.168Z,10.10
2023-04-12T07:52:03.261Z,10.10
2023-04-12T07:53:03.347Z,10.20
2023-04-12T07:54:03.175Z,10.10
2023-04-12T07:55:03.492Z,10.20
2023-04-12T07:56:03.381Z,10.20
2023-04-12T07:57:03.435Z,10.20
2023-04-12T07:58:03.423Z,10.20
2023-04-12T07:59:03.420Z,10.20
2023-04-12T08:00:03.433Z,10.30
2023-04-12T08:01:03.412Z,10.30
2023-04-12T08:02:03.573Z,10.30
2023-04-12T08:03:03.430Z,10.30
2023-04-12T08:04:03.945Z,10.30
2023-04-12T08:05:03.508Z,10.30
2023-04-12T08:06:03.464Z,10.30
2023-04-12T08:07:03.550Z,10.40
2023-04-12T08:08:03.676Z,10.40
2023-04-12T08:09:03.592Z,10.50
2023-04-12T08:10:02.683Z,10.50
2023-04-12T08:11:03.698Z,10.50
2023-04-12T08:12:03.573Z,10.60
2023-04-12T08:13:03.607Z,10.60
2023-04-12T08:14:03.670Z,10.70
2023-04-12T08:15:03.598Z,10.70
2023-04-12T08:16:02.682Z,10.80
2023-04-12T08:17:02.756Z,10.80
2023-04-12T08:18:02.917Z,10.90
2023-04-12T08:19:02.913Z,10.90
2023-04-12T08:20:03.025Z,11.00
2023-04-12T08:21:03.284Z,11.00
2023-04-12T08:22:03.374Z,11.00
2023-04-12T08:23:03.246Z,11.00
2023-04-12T08:24:03.325Z,11.10
2023-04-12T08:25:03.385Z,11.10
2023-04-12T08:26:04.338Z,11.00
2023-04-12T08:27:03.196Z,11.00
2023-04-12T08:28:03.109Z,11.00
2023-04-12T08:29:03.384Z,10.90
2023-04-12T08:30:03.453Z,10.90
2023-04-12T08:31:03.626Z,10.90
2023-04-12T08:32:02.691Z,10.90
2023-04-12T08:33:02.718Z,10.90
2023-04-12T08:34:02.720Z,10.90
2023-04-12T08:35:02.969Z,10.90
2023-04-12T08:36:03.094Z,10.90
2023-04-12T08:37:02.979Z,10.90
2023-04-12T08:38:02.927Z,10.90
2023-04-12T08:39:02.975Z,10.90
2023-04-12T08:40:03.072Z,10.90
2023-04-12T08:41:03.114Z,10.90
2023-04-12T08:42:03.175Z,10.90
2023-04-12T08:43:03.113Z,10.90
2023-04-12T08:44:03.075Z,11.00
2023-04-12T08:45:03.065Z,11.00
2023-04-12T08:46:03.064Z,11.00
2023-04-12T08:47:03.107Z,11.00
2023-04-12T08:48:03.599Z,11.00
2023-04-12T08:49:03.530Z,11.00
2023-04-12T08:50:03.655Z,10.90
2023-04-12T08:51:03.534Z,11.00
2023-04-12T08:52:02.637Z,11.00
2023-04-12T08:53:02.789Z,11.00
2023-04-12T08:54:02.818Z,10.90
2023-04-12T08:55:02.987Z,10.90
2023-04-12T08:56:02.965Z,10.90
2023-04-12T08:57:03.084Z,10.90
2023-04-12T08:58:03.090Z,11.00
2023-04-12T08:59:03.021Z,11.00
2023-04-12T09:00:03.067Z,11.00
2023-04-12T09:01:03.101Z,11.00
2023-04-12T09:02:03.214Z,11.00
2023-04-12T09:03:03.297Z,11.00
2023-04-12T09:04:03.622Z,11.00
2023-04-12T09:05:03.575Z,11.00
2023-04-12T09:06:03.394Z,11.00
2023-04-12T09:07:03.481Z,11.00
2023-04-12T09:08:03.452Z,11.00
2023-04-12T09:09:03.654Z,11.00
2023-04-12T09:10:03.619Z,11.00
2023-04-12T09:11:03.507Z,11.00
2023-04-12T09:12:03.583Z,11.00
2023-04-12T09:13:02.651Z,11.10
2023-04-12T09:14:02.896Z,11.10
2023-04-12T09:15:02.744Z,11.10
2023-04-12T09:16:02.868Z,11.10
2023-04-12T09:17:02.978Z,11.10
2023-04-12T09:18:02.972Z,11.20
2023-04-12T09:19:02.907Z,11.20
2023-04-12T09:20:03.051Z,11.20
2023-04-12T09:21:03.013Z,11.20
2023-04-12T09:22:03.148Z,11.20
2023-04-12T09:23:03.231Z,11.20
2023-04-12T09:24:03.250Z,11.20
2023-04-12T09:25:03.434Z,11.20
2023-04-12T09:26:03.365Z,11.30
2023-04-12T09:27:03.524Z,11.30
2023-04-12T09:28:03.498Z,11.30
2023-04-12T09:29:03.491Z,11.40
2023-04-12T09:30:03.537Z,11.40
2023-04-12T09:31:02.672Z,11.40
2023-04-12T09:32:02.904Z,11.40
2023-04-12T09:33:02.816Z,11.40
2023-04-12T09:34:02.804Z,11.40
2023-04-12T09:35:02.933Z,11.50
2023-04-12T09:36:02.918Z,11.50
2023-04-12T09:37:03.052Z,11.50
2023-04-12T09:38:02.945Z,11.50
2023-04-12T09:39:03.049Z,11.60
2023-04-12T09:40:03.017Z,11.60
2023-04-12T09:41:02.941Z,11.50
2023-04-12T09:42:03.062Z,11.50
2023-04-12T09:43:03.152Z,11.50
2023-04-12T09:44:02.983Z,11.40
2023-04-12T09:45:03.230Z,11.40
2023-04-12T09:46:03.321Z,11.50
2023-04-12T09:47:03.189Z,11.40
2023-04-12T09:48:03.344Z,11.40
2023-04-12T09:49:03.356Z,11.40
2023-04-12T09:50:03.216Z,11.40
2023-04-12T09:51:03.181Z,11.40
2023-04-12T09:52:03.234Z,11.30
2023-04-12T09:53:03.217Z,11.30
2023-04-12T09:54:03.259Z,11.30
2023-04-12T09:55:03.203Z,11.30
2023-04-12T09:56:03.170Z,11.20
2023-04-12T09:57:03.238Z,11.20
2023-04-12T09:58:03.168Z,11.20
2023-04-12T09:59:03.297Z,11.10
2023-04-12T10:00:03.344Z,11.10
2023-04-12T10:01:03.378Z,11.10
2023-04-12T10:02:03.475Z,11.10
2023-04-12T10:03:03.683Z,11.10
2023-04-12T10:04:03.854Z,11.10
2023-04-12T10:05:03.624Z,11.00
2023-04-12T10:06:02.674Z,10.90
2023-04-12T10:07:02.705Z,10.90
2023-04-12T10:08:02.737Z,10.90
2023-04-12T10:09:02.867Z,10.90
2023-04-12T10:10:02.805Z,10.80
2023-04-12T10:11:02.869Z,10.80
2023-04-12T10:12:02.795Z,10.80
2023-04-12T10:13:02.751Z,10.80
2023-04-12T10:14:03.062Z,10.70
2023-04-12T10:15:02.912Z,10.70
2023-04-12T10:16:02.963Z,10.70
2023-04-12T10:17:03.053Z,10.70
2023-04-12T10:18:03.189Z,10.60
2023-04-12T10:19:03.193Z,10.60
2023-04-12T10:20:03.560Z,10.60
2023-04-12T10:21:02.694Z,10.60
2023-04-12T10:22:02.859Z,10.50
2023-04-12T10:23:02.936Z,10.40
2023-04-12T10:24:03.075Z,10.50
2023-04-12T10:25:03.254Z,10.50
2023-04-12T10:26:03.065Z,10.30
2023-04-12T10:27:03.123Z,10.30
2023-04-12T10:28:03.176Z,10.30
2023-04-12T10:29:03.178Z,10.30
2023-04-12T10:30:03.222Z,10.20
2023-04-12T10:31:03.175Z,10.20
2023-04-12T10:32:03.236Z,10.20
2023-04-12T10:33:03.370Z,10.20
2023-04-12T10:34:03.322Z,10.10
2023-04-12T10:35:03.269Z,10.10
2023-04-12T10:36:03.324Z,10.10
2023-04-12T10:37:03.318Z,10.10
2023-04-12T10:38:03.553Z,10.00
2023-04-12T10:39:03.615Z,10.00
2023-04-12T10:40:03.660Z,9.90
2023-04-12T10:41:03.592Z,9.90
2023-04-12T10:42:03.557Z,9.90
2023-04-12T10:43:03.492Z,9.90
2023-04-12T10:44:04.341Z,9.80
2023-04-12T10:45:03.331Z,9.80
2023-04-12T10:46:03.385Z,9.80
2023-04-12T10:47:03.545Z,9.70
2023-04-12T10:48:03.319Z,9.70
2023-04-12T10:49:03.481Z,9.70
2023-04-12T10:50:03.438Z,9.60
2023-04-12T10:51:03.394Z,9.60
2023-04-12T10:52:03.503Z,9.50
2023-04-12T10:53:03.628Z,9.50
2023-04-12T10:54:03.531Z,9.50
2023-04-12T10:55:03.571Z,9.40
2023-04-12T10:56:03.635Z,9.40
2023-04-12T10:57:03.559Z,9.30
2023-04-12T10:58:02.965Z,9.30
2023-04-12T10:59:03.249Z,9.30
2023-04-12T11:00:03.066Z,9.30
2023-04-12T11:01:03.191Z,9.30
2023-04-12T11:02:03.340Z,9.30
2023-04-12T11:03:03.338Z,9.30
2023-04-12T11:04:03.411Z,9.30
2023-04-12T11:05:03.444Z,9.30
2023-04-12T11:06:13.068Z,9.30
2023-04-12T11:07:02.949Z,9.30
2023-04-12T11:08:03.016Z,9.30
2023-04-12T11:09:03.120Z,9.30
2023-04-12T11:10:03.180Z,9.30
2023-04-12T11:11:03.329Z,9.30
2023-04-12T11:12:03.331Z,9.20
2023-04-12T11:13:03.449Z,9.30
2023-04-12T11:14:03.418Z,9.20
2023-04-12T11:15:03.380Z,9.20
2023-04-12T11:16:03.535Z,9.20
2023-04-12T11:17:03.629Z,9.20
2023-04-12T11:18:03.677Z,9.20
2023-04-12T11:19:02.923Z,9.20
2023-04-12T11:20:02.803Z,9.20
2023-04-12T11:21:02.931Z,9.30
2023-04-12T11:22:02.899Z,9.30
2023-04-12T11:23:02.809Z,9.30
2023-04-12T11:24:02.922Z,9.30
2023-04-12T11:25:02.854Z,9.30
2023-04-12T11:26:02.998Z,9.30
2023-04-12T11:27:02.844Z,9.30
2023-04-12T11:28:05.367Z,9.30
2023-04-12T11:29:03.014Z,9.30
2023-04-12T11:30:02.979Z,9.30
2023-04-12T11:31:02.961Z,9.30
2023-04-12T11:32:02.944Z,9.40
2023-04-12T11:33:02.960Z,9.30
2023-04-12T11:34:03.557Z,9.30
2023-04-12T11:35:03.743Z,9.30
2023-04-12T11:36:02.677Z,9.30
2023-04-12T11:37:02.697Z,9.30
2023-04-12T11:38:02.851Z,9.30
2023-04-12T11:39:02.790Z,9.20
2023-04-12T11:40:02.875Z,9.30
2023-04-12T11:41:02.784Z,9.20
2023-04-12T11:42:02.818Z,9.20
2023-04-12T11:43:02.846Z,9.30
2023-04-12T11:44:02.746Z,9.30
2023-04-12T11:45:09.459Z,9.30
2023-04-12T11:46:02.782Z,9.30
2023-04-12T11:47:02.776Z,9.30
2023-04-12T11:48:02.869Z,9.30
2023-04-12T11:49:02.991Z,9.40
2023-04-12T11:50:02.992Z,9.40
2023-04-12T11:51:10.646Z,9.40
2023-04-12T11:52:02.900Z,9.40
2023-04-12T11:53:02.804Z,9.50
2023-04-12T11:54:02.873Z,9.50
2023-04-12T11:55:03.046Z,9.50
2023-04-12T11:56:02.875Z,9.60
2023-04-12T11:57:05.526Z,9.60
2023-04-12T11:58:03.048Z,9.70
2023-04-12T11:59:03.161Z,9.70
2023-04-12T12:00:03.142Z,9.70
2023-04-12T12:01:03.301Z,9.70
2023-04-12T12:02:10.972Z,9.80
2023-04-12T12:03:07.111Z,9.80
2023-04-12T12:04:03.724Z,9.80
2023-04-12T12:05:03.980Z,9.80
2023-04-12T12:06:03.649Z,9.90
2023-04-12T12:07:03.528Z,9.90
2023-04-12T12:08:03.483Z,9.90
2023-04-12T12:09:03.556Z,9.90
2023-04-12T12:10:03.556Z,9.90
2023-04-12T12:11:07.598Z,10.00
2023-04-12T12:12:03.484Z,10.00
2023-04-12T12:13:03.561Z,10.10
2023-04-12T12:14:03.492Z,10.10
2023-04-12T12:15:03.675Z,10.10
2023-04-12T12:16:02.720Z,10.20
2023-04-12T12:17:02.719Z,10.20
2023-04-12T12:18:02.787Z,10.30
2023-04-12T12:19:02.714Z,10.30
2023-04-12T12:20:02.740Z,10.30
2023-04-12T12:21:02.805Z,10.40
2023-04-12T12:22:02.824Z,10.40
2023-04-12T12:23:02.781Z,10.50
2023-04-12T12:24:02.884Z,10.50
2023-04-12T12:25:02.882Z,10.50
2023-04-12T12:26:17.459Z,10.60
2023-04-12T12:27:02.968Z,10.60
2023-04-12T12:28:03.035Z,10.60
2023-04-12T12:29:03.010Z,10.60
2023-04-12T12:30:03.033Z,10.60
2023-04-12T12:31:02.971Z,10.60
2023-04-12T12:32:03.273Z,10.60
2023-04-12T12:33:03.320Z,10.60
2023-04-12T12:34:05.157Z,10.60
2023-04-12T12:35:03.247Z,10.60
2023-04-12T12:36:03.471Z,10.60
2023-04-12T12:37:03.402Z,10.60
2023-04-12T12:38:03.489Z,10.60
2023-04-12T12:39:03.529Z,10.70
2023-04-12T12:40:03.545Z,10.70
2023-04-12T12:41:03.541Z,10.70
2023-04-12T12:42:03.537Z,10.80
2023-04-12T12:43:03.533Z,10.80
2023-04-12T12:44:03.456Z,10.80
2023-04-12T12:45:03.426Z,10.90
2023-04-12T12:46:03.335Z,10.80
2023-04-12T12:47:13.422Z,10.80
2023-04-12T12:48:03.487Z,10.80
2023-04-12T12:49:03.358Z,10.80
2023-04-12T12:50:03.561Z,10.80
2023-04-12T12:51:02.642Z,10.80
2023-04-12T12:52:02.825Z,10.80
2023-04-12T12:53:02.883Z,10.80
2023-04-12T12:54:02.874Z,10.80
2023-04-12T12:55:02.822Z,10.80
2023-04-12T12:56:02.844Z,10.80
2023-04-12T12:57:02.963Z,10.90
2023-04-12T12:58:07.812Z,10.90
2023-04-12T12:59:03.114Z,10.90
2023-04-12T13:00:03.226Z,10.90
2023-04-12T13:01:03.271Z,10.90
2023-04-12T13:02:03.262Z,10.90
2023-04-12T13:03:03.607Z,10.90
2023-04-12T13:04:03.358Z,10.90
2023-04-12T13:05:03.472Z,10.90
2023-04-12T13:06:03.486Z,10.90
2023-04-12T13:07:03.654Z,10.90
2023-04-12T13:08:03.623Z,10.90
2023-04-12T13:09:02.731Z,10.90
2023-04-12T13:10:02.739Z,10.90
2023-04-12T13:11:02.680Z,10.90
2023-04-12T13:12:02.651Z,10.90